CSAV Loncomilla — VRFB3 — position and weather

sailwx.info

Track history (hours):
 
Tides and Currents Weather Stations Pressure Air Temp Water Temp Dewpoint Dewpoint Depression Visibility Wind Speed Wind Dir Waves Ship Positions

CSAV Loncomilla

Last reported at 2016-Feb-05 13:25 UTC. Time now 2016-Feb-05 22:22 UTC.
Position N 30°29' E 122°39'.

Length 261 m; draft 11.3 m.

MMSI: 477207400.

Date/timePositionNaut miles runAvg speedWind from/ knotsBaromVisibWave heightAir tempDewpointWater temp
2016-Feb-05 13:25N 30°29' E 122°39'1011.2
2016-Feb-05 12:33N 30°25' E 122°49'36 8.6
2016-Feb-05 08:24N 29°50' E 122°46'9 9.4
2016-Feb-05 07:24N 29°43' E 122°38'10 8.9
2016-Feb-05 06:19N 29°42' E 122°27'912.4
2016-Feb-05 05:33N 29°46' E 122°17'9 8.6
2016-Feb-05 04:31N 29°49' E 122°08'7 0.3
2016-Feb-04 08:33N 29°46' E 122°01'7 7.1
2016-Feb-04 07:32N 29°49' E 122°08'9 9.4
2016-Feb-04 06:33N 29°46' E 122°18'6 6.4
2016-Feb-04 05:33N 29°43' E 122°25'1 1.4
2016-Feb-04 04:32N 29°44' E 122°24'8 7.5
2016-Feb-04 03:31N 29°45' E 122°32'  
Track history (hours):
 
Tides and Currents Weather Stations Pressure Air Temp Water Temp Dewpoint Dewpoint Depression Visibility Wind Speed Wind Dir Waves Ship Positions

CSAV Loncomilla

Last reported at 2016-Feb-05 13:25 UTC. Time now 2016-Feb-05 22:22 UTC.
Position N 30°29' E 122°39'.

Length 261 m; draft 11.3 m.

MMSI: 477207400.

Date/timePositionNaut miles runAvg speedWind from/ knotsBaromVisibWave heightAir tempDewpointWater temp
2016-Feb-05 13:25N 30°29' E 122°39'1011.2
2016-Feb-05 12:33N 30°25' E 122°49'36 8.6
2016-Feb-05 08:24N 29°50' E 122°46'9 9.4
2016-Feb-05 07:24N 29°43' E 122°38'10 8.9
2016-Feb-05 06:19N 29°42' E 122°27'912.4
2016-Feb-05 05:33N 29°46' E 122°17'9 8.6
2016-Feb-05 04:31N 29°49' E 122°08'7 0.3
2016-Feb-04 08:33N 29°46' E 122°01'7 7.1
2016-Feb-04 07:32N 29°49' E 122°08'9 9.4
2016-Feb-04 06:33N 29°46' E 122°18'6 6.4
2016-Feb-04 05:33N 29°43' E 122°25'1 1.4
2016-Feb-04 04:32N 29°44' E 122°24'8 7.5
2016-Feb-04 03:31N 29°45' E 122°32'  

Dump ship's entire track history